EXS5RJ LEIB-EGNM
Flight info
| Callsign | EXS5RJ |
|---|---|
| Flight time | 2h 19m |
| Altitude | 38000 |
| Route | EPAMA N856 UMURE N863 GIROM DCT GONUP DCT TUPAR UN861 ANG DCT AKIKI UN867 AVANT UM184 HEMEL T420 TNT N57 DENBY DCT LBA |
| Aircraft | B738/M-SDE2E3FGHIRWXY/LB1 |
Departure
| Time | 2026-05-01 11:30 |
|---|---|
| Airport | Ibiza Airport (LEIB) |
Arrival
| Time | 2026-05-01 13:50 |
|---|---|
| Airport | Leeds Bradford Airport (EGNM) |
| Time | Latitude | Longitude | Altitude | Speed | Heading |
|---|---|---|---|---|---|
| 2026-05-01 10:36 | 38.87494 | 1.37093 | 7 ft | 0 kts | 332° |
| 2026-05-01 11:25 | 38.87496 | 1.37092 | 7 ft | 1 kts | 332° |
| 2026-05-01 11:26 | 38.87512 | 1.37081 | 8 ft | 4 kts | 335° |
| 2026-05-01 11:26 | 38.87501 | 1.36953 | 7 ft | 13 kts | 242° |
| 2026-05-01 11:26 | 38.87458 | 1.36851 | 7 ft | 13 kts | 242° |
| 2026-05-01 11:27 | 38.87393 | 1.36806 | 7 ft | 12 kts | 155° |
| 2026-05-01 11:27 | 38.87316 | 1.36853 | 8 ft | 12 kts | 160° |
| 2026-05-01 11:27 | 38.87254 | 1.36788 | 8 ft | 13 kts | 240° |
| 2026-05-01 11:27 | 38.87206 | 1.36668 | 8 ft | 17 kts | 242° |
| 2026-05-01 11:28 | 38.87146 | 1.36522 | 8 ft | 21 kts | 241° |
| 2026-05-01 11:28 | 38.87076 | 1.36359 | 9 ft | 21 kts | 242° |
| 2026-05-01 11:28 | 38.87011 | 1.36197 | 7 ft | 20 kts | 240° |
| 2026-05-01 11:29 | 38.86885 | 1.35890 | 7 ft | 19 kts | 243° |
| 2026-05-01 11:29 | 38.86798 | 1.35842 | 7 ft | 15 kts | 160° |
| 2026-05-01 11:29 | 38.86741 | 1.35999 | 5 ft | 13 kts | 61° |
| 2026-05-01 11:30 | 38.86853 | 1.36269 | 5 ft | 69 kts | 62° |
| 2026-05-01 11:30 | 38.87194 | 1.37093 | 10 ft | 137 kts | 62° |
| 2026-05-01 11:30 | 38.87705 | 1.38318 | 389 ft | 162 kts | 62° |
| 2026-05-01 11:30 | 38.88187 | 1.39617 | 1264 ft | 160 kts | 69° |
| 2026-05-01 11:31 | 38.88493 | 1.41026 | 1927 ft | 171 kts | 77° |
| 2026-05-01 11:31 | 38.88721 | 1.42569 | 2523 ft | 183 kts | 77° |
| 2026-05-01 11:31 | 38.89009 | 1.44280 | 2877 ft | 206 kts | 75° |
| 2026-05-01 11:31 | 38.89353 | 1.46125 | 3356 ft | 219 kts | 75° |
| 2026-05-01 11:32 | 38.89712 | 1.48045 | 4068 ft | 222 kts | 75° |
| 2026-05-01 11:32 | 38.90070 | 1.49979 | 4800 ft | 224 kts | 75° |
| 2026-05-01 11:32 | 38.90431 | 1.51942 | 5501 ft | 228 kts | 75° |
| 2026-05-01 11:32 | 38.90876 | 1.53904 | 6163 ft | 232 kts | 60° |
| 2026-05-01 11:33 | 38.91911 | 1.55567 | 6524 ft | 251 kts | 43° |
| 2026-05-01 11:33 | 38.93275 | 1.57133 | 6818 ft | 273 kts | 40° |
| 2026-05-01 11:33 | 38.94735 | 1.58753 | 7415 ft | 281 kts | 40° |
| 2026-05-01 11:33 | 38.96216 | 1.60421 | 8136 ft | 285 kts | 41° |
| 2026-05-01 11:34 | 38.97704 | 1.62120 | 8869 ft | 288 kts | 41° |
| 2026-05-01 11:34 | 38.99215 | 1.63854 | 9553 ft | 294 kts | 40° |
| 2026-05-01 11:34 | 39.00952 | 1.65226 | 10252 ft | 295 kts | 16° |
| 2026-05-01 11:34 | 39.02968 | 1.65691 | 10972 ft | 296 kts | 5° |
| 2026-05-01 11:35 | 39.05036 | 1.65944 | 11644 ft | 300 kts | 4° |
| 2026-05-01 11:35 | 39.07130 | 1.66199 | 12369 ft | 303 kts | 5° |
| 2026-05-01 11:35 | 39.09238 | 1.66390 | 13099 ft | 306 kts | 355° |
| 2026-05-01 11:35 | 39.11330 | 1.65695 | 13496 ft | 321 kts | 337° |
| 2026-05-01 11:36 | 39.13455 | 1.64528 | 13696 ft | 343 kts | 335° |
| 2026-05-01 11:36 | 39.15649 | 1.63265 | 14110 ft | 355 kts | 335° |
| 2026-05-01 11:36 | 39.17919 | 1.61952 | 14735 ft | 359 kts | 335° |
| 2026-05-01 11:36 | 39.20214 | 1.60635 | 15416 ft | 363 kts | 335° |
| 2026-05-01 11:37 | 39.22540 | 1.59310 | 16065 ft | 368 kts | 335° |
| 2026-05-01 11:37 | 39.24892 | 1.57979 | 16754 ft | 371 kts | 335° |
| 2026-05-01 11:37 | 39.27269 | 1.56639 | 17435 ft | 375 kts | 335° |
| 2026-05-01 11:37 | 39.29674 | 1.55286 | 18092 ft | 379 kts | 335° |
| 2026-05-01 11:38 | 39.32110 | 1.53917 | 18686 ft | 384 kts | 335° |
| 2026-05-01 11:38 | 39.34572 | 1.52532 | 19247 ft | 388 kts | 335° |
| 2026-05-01 11:38 | 39.37061 | 1.51132 | 19804 ft | 392 kts | 335° |
| 2026-05-01 11:38 | 39.39575 | 1.49716 | 20368 ft | 396 kts | 335° |
| 2026-05-01 11:39 | 39.42108 | 1.48288 | 20945 ft | 399 kts | 335° |
| 2026-05-01 11:39 | 39.44661 | 1.46848 | 21499 ft | 402 kts | 335° |
| 2026-05-01 11:39 | 39.47239 | 1.45393 | 22033 ft | 406 kts | 335° |
| 2026-05-01 11:39 | 39.49838 | 1.43924 | 22577 ft | 410 kts | 335° |
| 2026-05-01 11:40 | 39.52460 | 1.42441 | 23089 ft | 413 kts | 335° |
| 2026-05-01 11:40 | 39.55106 | 1.40944 | 23603 ft | 417 kts | 335° |
| 2026-05-01 11:40 | 39.57775 | 1.39433 | 24060 ft | 420 kts | 335° |
| 2026-05-01 11:40 | 39.60484 | 1.37998 | 24517 ft | 423 kts | 342° |
| 2026-05-01 11:41 | 39.63406 | 1.37378 | 24976 ft | 426 kts | 353° |
| 2026-05-01 11:41 | 39.66360 | 1.37029 | 25438 ft | 428 kts | 354° |
| 2026-05-01 11:41 | 39.69345 | 1.36696 | 25842 ft | 431 kts | 354° |
| 2026-05-01 11:41 | 39.72343 | 1.36353 | 26245 ft | 434 kts | 353° |
| 2026-05-01 11:42 | 39.75361 | 1.35990 | 26653 ft | 437 kts | 353° |
| 2026-05-01 11:42 | 39.78394 | 1.35608 | 27054 ft | 439 kts | 353° |
| 2026-05-01 11:42 | 39.81441 | 1.35214 | 27460 ft | 441 kts | 353° |
| 2026-05-01 11:42 | 39.84505 | 1.34810 | 27857 ft | 444 kts | 352° |
| 2026-05-01 11:43 | 39.87591 | 1.34400 | 28241 ft | 446 kts | 352° |
| 2026-05-01 11:43 | 39.90686 | 1.33988 | 28613 ft | 449 kts | 352° |
| 2026-05-01 11:43 | 39.93802 | 1.33573 | 28974 ft | 451 kts | 352° |
| 2026-05-01 11:44 | 40.00091 | 1.32735 | 29697 ft | 456 kts | 352° |
| 2026-05-01 11:44 | 40.03251 | 1.32315 | 30041 ft | 458 kts | 352° |
| 2026-05-01 11:44 | 40.06429 | 1.31891 | 30377 ft | 460 kts | 352° |
| 2026-05-01 11:44 | 40.09621 | 1.31466 | 30662 ft | 462 kts | 352° |
| 2026-05-01 11:45 | 40.12778 | 1.31045 | 30948 ft | 463 kts | 352° |
| 2026-05-01 11:45 | 40.15991 | 1.30615 | 31222 ft | 465 kts | 352° |
| 2026-05-01 11:45 | 40.19216 | 1.30184 | 31517 ft | 466 kts | 352° |
| 2026-05-01 11:45 | 40.22437 | 1.29753 | 31913 ft | 465 kts | 352° |
| 2026-05-01 11:46 | 40.25645 | 1.29324 | 32345 ft | 462 kts | 352° |
| 2026-05-01 11:46 | 40.28842 | 1.28895 | 32700 ft | 462 kts | 352° |
| 2026-05-01 11:46 | 40.32041 | 1.28465 | 33003 ft | 462 kts | 352° |
| 2026-05-01 11:46 | 40.35243 | 1.28035 | 33336 ft | 462 kts | 352° |
| 2026-05-01 11:47 | 40.37398 | 1.27745 | 33589 ft | 461 kts | 352° |
| 2026-05-01 11:47 | 40.40588 | 1.27315 | 33978 ft | 459 kts | 352° |
| 2026-05-01 11:47 | 40.43762 | 1.26886 | 34307 ft | 459 kts | 352° |
| 2026-05-01 11:47 | 40.46941 | 1.26456 | 34579 ft | 459 kts | 352° |
| 2026-05-01 11:48 | 40.50079 | 1.26031 | 34829 ft | 459 kts | 352° |
| 2026-05-01 11:48 | 40.53260 | 1.25599 | 35083 ft | 459 kts | 352° |
| 2026-05-01 11:48 | 40.56434 | 1.25169 | 35375 ft | 458 kts | 352° |
| 2026-05-01 11:48 | 40.59598 | 1.24739 | 35670 ft | 457 kts | 352° |
| 2026-05-01 11:49 | 40.62757 | 1.24309 | 35930 ft | 456 kts | 352° |
| 2026-05-01 11:49 | 40.65916 | 1.23880 | 36181 ft | 456 kts | 352° |
| 2026-05-01 11:49 | 40.69071 | 1.23450 | 36437 ft | 456 kts | 352° |
| 2026-05-01 11:49 | 40.72223 | 1.23020 | 36707 ft | 455 kts | 352° |
| 2026-05-01 11:50 | 40.75369 | 1.22589 | 36958 ft | 454 kts | 352° |
| 2026-05-01 11:50 | 40.78510 | 1.22156 | 37187 ft | 454 kts | 352° |
| 2026-05-01 11:50 | 40.81656 | 1.21722 | 37417 ft | 454 kts | 352° |
| 2026-05-01 11:50 | 40.84800 | 1.21288 | 37674 ft | 453 kts | 352° |
| 2026-05-01 11:51 | 40.87933 | 1.20855 | 37904 ft | 452 kts | 352° |
| 2026-05-01 11:51 | 40.91063 | 1.20422 | 38128 ft | 452 kts | 352° |
| 2026-05-01 11:51 | 40.97352 | 1.19551 | 38214 ft | 456 kts | 352° |
| 2026-05-01 11:52 | 41.03656 | 1.18678 | 38206 ft | 454 kts | 352° |
| 2026-05-01 11:52 | 41.09902 | 1.17811 | 38208 ft | 449 kts | 352° |
| 2026-05-01 11:53 | 41.16104 | 1.16957 | 38217 ft | 447 kts | 353° |
| 2026-05-01 11:53 | 41.22305 | 1.16297 | 38208 ft | 446 kts | 354° |
| 2026-05-01 11:54 | 41.28488 | 1.15680 | 38216 ft | 445 kts | 353° |
| 2026-05-01 11:54 | 41.34666 | 1.15040 | 38230 ft | 445 kts | 353° |
| 2026-05-01 11:55 | 41.40809 | 1.14405 | 38234 ft | 446 kts | 353° |
| 2026-05-01 11:55 | 41.47002 | 1.13766 | 38217 ft | 447 kts | 353° |
| 2026-05-01 11:56 | 41.53221 | 1.13122 | 38225 ft | 449 kts | 353° |
| 2026-05-01 11:56 | 41.59454 | 1.12451 | 38219 ft | 450 kts | 353° |
| 2026-05-01 11:57 | 41.65705 | 1.11753 | 38213 ft | 451 kts | 353° |
| 2026-05-01 11:57 | 41.71959 | 1.11066 | 38211 ft | 451 kts | 353° |
| 2026-05-01 11:58 | 41.78220 | 1.10410 | 38218 ft | 452 kts | 354° |
| 2026-05-01 11:59 | 41.87627 | 1.09430 | 38216 ft | 451 kts | 353° |
| 2026-05-01 11:59 | 41.93889 | 1.08770 | 38213 ft | 451 kts | 353° |
| 2026-05-01 12:00 | 42.03286 | 1.07778 | 38212 ft | 451 kts | 353° |
| 2026-05-01 12:01 | 42.12670 | 1.06784 | 38218 ft | 450 kts | 353° |
| 2026-05-01 12:01 | 42.18909 | 1.06112 | 38228 ft | 450 kts | 353° |
| 2026-05-01 12:02 | 42.25152 | 1.05424 | 38230 ft | 449 kts | 353° |
| 2026-05-01 12:02 | 42.31387 | 1.04736 | 38231 ft | 449 kts | 353° |
| 2026-05-01 12:03 | 42.37575 | 1.04054 | 38230 ft | 448 kts | 353° |
| 2026-05-01 12:03 | 42.43790 | 1.03369 | 38236 ft | 448 kts | 353° |
| 2026-05-01 12:04 | 42.50004 | 1.02693 | 38264 ft | 448 kts | 353° |
| 2026-05-01 12:04 | 42.56227 | 1.02020 | 38243 ft | 449 kts | 353° |
| 2026-05-01 12:05 | 42.62463 | 1.01342 | 38239 ft | 450 kts | 353° |
| 2026-05-01 12:05 | 42.71825 | 1.00321 | 38227 ft | 450 kts | 353° |
| 2026-05-01 12:06 | 42.78066 | 0.99563 | 38211 ft | 449 kts | 348° |
| 2026-05-01 12:06 | 42.84081 | 0.97638 | 38205 ft | 446 kts | 342° |
| 2026-05-01 12:07 | 42.90066 | 0.95457 | 38205 ft | 445 kts | 343° |
| 2026-05-01 12:07 | 42.96049 | 0.93328 | 38216 ft | 444 kts | 343° |
| 2026-05-01 12:08 | 43.02036 | 0.91247 | 38213 ft | 444 kts | 343° |
| 2026-05-01 12:08 | 43.08034 | 0.89174 | 38203 ft | 445 kts | 343° |
| 2026-05-01 12:09 | 43.14034 | 0.87095 | 38197 ft | 445 kts | 343° |
| 2026-05-01 12:09 | 43.20042 | 0.85008 | 38196 ft | 445 kts | 343° |
| 2026-05-01 12:10 | 43.29014 | 0.81881 | 38198 ft | 446 kts | 343° |
| 2026-05-01 12:11 | 43.38045 | 0.78725 | 38199 ft | 447 kts | 343° |
| 2026-05-01 12:11 | 43.44069 | 0.76614 | 38203 ft | 447 kts | 344° |
| 2026-05-01 12:12 | 43.50051 | 0.74266 | 38197 ft | 447 kts | 340° |
| 2026-05-01 12:12 | 43.55947 | 0.71542 | 38191 ft | 447 kts | 339° |
| 2026-05-01 12:13 | 43.61844 | 0.68776 | 38190 ft | 447 kts | 339° |
| 2026-05-01 12:13 | 43.67747 | 0.66045 | 38189 ft | 448 kts | 340° |
| 2026-05-01 12:14 | 43.73666 | 0.63329 | 38191 ft | 448 kts | 340° |
| 2026-05-01 12:14 | 43.79591 | 0.60613 | 38187 ft | 449 kts | 340° |
| 2026-05-01 12:15 | 43.85481 | 0.57907 | 38190 ft | 449 kts | 340° |
| 2026-05-01 12:15 | 43.91411 | 0.55176 | 38198 ft | 449 kts | 340° |
| 2026-05-01 12:16 | 43.97350 | 0.52435 | 38201 ft | 450 kts | 340° |
| 2026-05-01 12:16 | 44.03290 | 0.49687 | 38210 ft | 450 kts | 340° |
| 2026-05-01 12:17 | 44.09234 | 0.46931 | 38208 ft | 451 kts | 340° |
| 2026-05-01 12:17 | 44.15183 | 0.44168 | 38206 ft | 451 kts | 340° |
| 2026-05-01 12:18 | 44.21132 | 0.41398 | 38208 ft | 451 kts | 340° |
| 2026-05-01 12:18 | 44.27086 | 0.38621 | 38206 ft | 451 kts | 340° |
| 2026-05-01 12:19 | 44.33034 | 0.35840 | 38192 ft | 451 kts | 340° |
| 2026-05-01 12:19 | 44.38978 | 0.33055 | 38193 ft | 450 kts | 340° |
| 2026-05-01 12:20 | 44.44916 | 0.30266 | 38191 ft | 450 kts | 340° |
| 2026-05-01 12:20 | 44.50859 | 0.27470 | 38194 ft | 450 kts | 340° |
| 2026-05-01 12:21 | 44.56791 | 0.24673 | 38189 ft | 450 kts | 340° |
| 2026-05-01 12:21 | 44.62719 | 0.21871 | 38199 ft | 449 kts | 340° |
| 2026-05-01 12:22 | 44.68648 | 0.19063 | 38198 ft | 449 kts | 340° |
| 2026-05-01 12:22 | 44.74530 | 0.16272 | 38198 ft | 449 kts | 340° |
| 2026-05-01 12:23 | 44.80450 | 0.13456 | 38195 ft | 449 kts | 340° |
| 2026-05-01 12:23 | 44.86361 | 0.10638 | 38193 ft | 448 kts | 340° |
| 2026-05-01 12:24 | 44.92271 | 0.07815 | 38189 ft | 448 kts | 340° |
| 2026-05-01 12:24 | 44.98185 | 0.04983 | 38186 ft | 448 kts | 340° |
| 2026-05-01 12:25 | 45.07044 | 0.00730 | 38190 ft | 448 kts | 339° |
| 2026-05-01 12:26 | 45.12952 | -0.02114 | 38194 ft | 448 kts | 339° |
| 2026-05-01 12:26 | 45.21820 | -0.06394 | 38203 ft | 448 kts | 339° |
| 2026-05-01 12:27 | 45.30641 | -0.10666 | 38201 ft | 449 kts | 339° |
| 2026-05-01 12:28 | 45.39509 | -0.14975 | 38201 ft | 449 kts | 339° |
| 2026-05-01 12:29 | 45.48388 | -0.19304 | 38209 ft | 449 kts | 339° |
| 2026-05-01 12:29 | 45.57250 | -0.23638 | 38211 ft | 449 kts | 339° |
| 2026-05-01 12:30 | 45.66110 | -0.27987 | 38214 ft | 449 kts | 339° |
| 2026-05-01 12:31 | 45.72013 | -0.30892 | 38204 ft | 449 kts | 339° |
| 2026-05-01 12:31 | 45.77914 | -0.33803 | 38200 ft | 448 kts | 339° |
| 2026-05-01 12:32 | 45.82812 | -0.36224 | 38202 ft | 448 kts | 339° |
| 2026-05-01 12:32 | 45.91653 | -0.40605 | 38202 ft | 448 kts | 339° |
| 2026-05-01 12:33 | 45.97539 | -0.43530 | 38210 ft | 447 kts | 339° |
| 2026-05-01 12:33 | 46.03424 | -0.46462 | 38203 ft | 447 kts | 339° |
| 2026-05-01 12:34 | 46.09306 | -0.49398 | 38202 ft | 447 kts | 339° |
| 2026-05-01 12:34 | 46.15187 | -0.52341 | 38197 ft | 447 kts | 339° |
| 2026-05-01 12:35 | 46.21062 | -0.55287 | 38200 ft | 447 kts | 338° |
| 2026-05-01 12:35 | 46.26942 | -0.58243 | 38194 ft | 447 kts | 338° |
| 2026-05-01 12:36 | 46.32814 | -0.61201 | 38191 ft | 447 kts | 338° |
| 2026-05-01 12:36 | 46.38678 | -0.64162 | 38201 ft | 446 kts | 338° |
| 2026-05-01 12:37 | 46.44634 | -0.66739 | 38177 ft | 449 kts | 349° |
| 2026-05-01 12:37 | 46.50845 | -0.67792 | 38188 ft | 450 kts | 352° |
| 2026-05-01 12:38 | 46.57073 | -0.68730 | 38203 ft | 449 kts | 352° |
| 2026-05-01 12:38 | 46.63285 | -0.69722 | 38191 ft | 449 kts | 351° |
| 2026-05-01 12:39 | 46.69461 | -0.70753 | 38189 ft | 449 kts | 351° |
| 2026-05-01 12:39 | 46.75668 | -0.71803 | 38188 ft | 449 kts | 351° |
| 2026-05-01 12:40 | 46.81876 | -0.72857 | 38189 ft | 449 kts | 351° |
| 2026-05-01 12:40 | 46.88074 | -0.73910 | 38188 ft | 449 kts | 351° |
| 2026-05-01 12:41 | 46.94283 | -0.74966 | 38188 ft | 449 kts | 351° |
| 2026-05-01 12:41 | 47.00478 | -0.76022 | 38192 ft | 448 kts | 351° |
| 2026-05-01 12:42 | 47.06679 | -0.77081 | 38186 ft | 448 kts | 351° |
| 2026-05-01 12:42 | 47.12880 | -0.78144 | 38187 ft | 448 kts | 351° |
| 2026-05-01 12:43 | 47.19070 | -0.79207 | 38198 ft | 448 kts | 351° |
| 2026-05-01 12:43 | 47.25263 | -0.80272 | 38189 ft | 448 kts | 351° |
| 2026-05-01 12:44 | 47.31445 | -0.81339 | 38188 ft | 447 kts | 351° |
| 2026-05-01 12:45 | 47.43785 | -0.83475 | 38189 ft | 446 kts | 351° |
| 2026-05-01 12:45 | 47.49945 | -0.84546 | 38187 ft | 446 kts | 351° |
| 2026-05-01 12:46 | 47.56099 | -0.85716 | 38188 ft | 445 kts | 349° |
| 2026-05-01 12:46 | 47.62200 | -0.87318 | 38202 ft | 445 kts | 347° |
| 2026-05-01 12:47 | 47.68302 | -0.89015 | 38185 ft | 446 kts | 347° |
| 2026-05-01 12:47 | 47.74369 | -0.90670 | 38192 ft | 446 kts | 348° |
| 2026-05-01 12:48 | 47.80486 | -0.92310 | 38212 ft | 447 kts | 348° |
| 2026-05-01 12:48 | 47.86601 | -0.93942 | 38196 ft | 447 kts | 348° |
| 2026-05-01 12:49 | 47.92723 | -0.95579 | 38190 ft | 447 kts | 348° |
| 2026-05-01 12:49 | 47.98843 | -0.97221 | 38187 ft | 447 kts | 348° |
| 2026-05-01 12:50 | 48.04956 | -0.98865 | 38185 ft | 447 kts | 348° |
| 2026-05-01 12:50 | 48.11069 | -1.00514 | 38198 ft | 446 kts | 348° |
| 2026-05-01 12:51 | 48.17175 | -1.02164 | 38190 ft | 445 kts | 348° |
| 2026-05-01 12:52 | 48.26319 | -1.04644 | 38187 ft | 445 kts | 348° |
| 2026-05-01 12:52 | 48.35452 | -1.07129 | 38195 ft | 444 kts | 348° |
| 2026-05-01 12:53 | 48.44570 | -1.09619 | 38199 ft | 444 kts | 348° |
| 2026-05-01 12:54 | 48.50648 | -1.11284 | 38198 ft | 444 kts | 348° |
| 2026-05-01 12:54 | 48.59773 | -1.13792 | 38197 ft | 445 kts | 348° |
| 2026-05-01 12:55 | 48.68924 | -1.16316 | 38196 ft | 446 kts | 348° |
| 2026-05-01 12:56 | 48.75030 | -1.18005 | 38205 ft | 447 kts | 348° |
| 2026-05-01 12:56 | 48.81156 | -1.19705 | 38199 ft | 447 kts | 348° |
| 2026-05-01 12:57 | 48.87285 | -1.21408 | 38209 ft | 448 kts | 348° |
| 2026-05-01 12:57 | 48.96498 | -1.23978 | 38216 ft | 449 kts | 348° |
| 2026-05-01 12:58 | 49.02653 | -1.25700 | 38216 ft | 450 kts | 348° |
| 2026-05-01 12:59 | 49.11854 | -1.28283 | 38214 ft | 450 kts | 349° |
| 2026-05-01 12:59 | 49.21093 | -1.30886 | 38216 ft | 450 kts | 349° |
| 2026-05-01 13:00 | 49.30328 | -1.33497 | 38221 ft | 450 kts | 348° |
| 2026-05-01 13:01 | 49.39574 | -1.36122 | 38211 ft | 450 kts | 348° |
| 2026-05-01 13:02 | 49.48812 | -1.38755 | 38210 ft | 450 kts | 348° |
| 2026-05-01 13:07 | 50.14406 | -1.34499 | 38209 ft | 453 kts | 9° |
| 2026-05-01 13:07 | 50.17519 | -1.33690 | 38209 ft | 453 kts | 9° |
| 2026-05-01 13:08 | 50.23743 | -1.32126 | 38204 ft | 453 kts | 9° |
| 2026-05-01 13:08 | 50.29973 | -1.30581 | 38205 ft | 453 kts | 9° |
| 2026-05-01 13:09 | 50.36202 | -1.29032 | 38199 ft | 453 kts | 9° |
| 2026-05-01 13:09 | 50.42436 | -1.27473 | 38199 ft | 453 kts | 9° |
| 2026-05-01 13:10 | 50.48645 | -1.25744 | 38186 ft | 453 kts | 17° |
| 2026-05-01 13:10 | 50.54324 | -1.21754 | 38198 ft | 451 kts | 33° |
| 2026-05-01 13:11 | 50.59590 | -1.16396 | 38199 ft | 451 kts | 34° |
| 2026-05-01 13:11 | 50.64862 | -1.11016 | 38187 ft | 452 kts | 33° |
| 2026-05-01 13:12 | 50.70165 | -1.05689 | 38181 ft | 452 kts | 33° |
| 2026-05-01 13:12 | 50.75484 | -1.00360 | 38185 ft | 453 kts | 33° |
| 2026-05-01 13:13 | 50.80648 | -0.95183 | 38177 ft | 454 kts | 32° |
| 2026-05-01 13:13 | 50.83458 | -0.92913 | 38159 ft | 455 kts | 21° |
| 2026-05-01 13:13 | 50.86447 | -0.91279 | 38194 ft | 454 kts | 18° |
| 2026-05-01 13:14 | 50.92490 | -0.88264 | 38173 ft | 456 kts | 18° |
| 2026-05-01 13:14 | 50.98548 | -0.85228 | 38163 ft | 457 kts | 18° |
| 2026-05-01 13:15 | 51.04420 | -0.82211 | 38163 ft | 458 kts | 18° |
| 2026-05-01 13:15 | 51.10335 | -0.79133 | 38157 ft | 458 kts | 19° |
| 2026-05-01 13:16 | 51.16311 | -0.76010 | 38153 ft | 459 kts | 19° |
| 2026-05-01 13:16 | 51.22337 | -0.72854 | 38161 ft | 459 kts | 19° |
| 2026-05-01 13:17 | 51.33491 | -0.66993 | 38162 ft | 459 kts | 19° |
| 2026-05-01 13:18 | 51.42542 | -0.62215 | 38154 ft | 458 kts | 19° |
| 2026-05-01 13:18 | 51.48642 | -0.58983 | 38156 ft | 458 kts | 19° |
| 2026-05-01 13:19 | 51.54647 | -0.55793 | 38162 ft | 458 kts | 19° |
| 2026-05-01 13:20 | 51.63721 | -0.50955 | 38156 ft | 458 kts | 19° |
| 2026-05-01 13:20 | 51.69771 | -0.47718 | 38153 ft | 458 kts | 19° |
| 2026-05-01 13:21 | 51.78985 | -0.43464 | 38136 ft | 465 kts | 360° |
| 2026-05-01 13:21 | 51.82189 | -0.44009 | 38170 ft | 464 kts | 343° |
| 2026-05-01 13:21 | 51.85158 | -0.46002 | 38166 ft | 461 kts | 326° |
| 2026-05-01 13:22 | 51.90587 | -0.51614 | 38167 ft | 465 kts | 326° |
| 2026-05-01 13:22 | 51.96109 | -0.57093 | 38142 ft | 464 kts | 327° |
| 2026-05-01 13:23 | 52.01593 | -0.62418 | 38132 ft | 455 kts | 327° |
| 2026-05-01 13:23 | 52.06985 | -0.67684 | 37659 ft | 448 kts | 327° |
| 2026-05-01 13:24 | 52.09658 | -0.70307 | 36917 ft | 452 kts | 327° |
| 2026-05-01 13:24 | 52.12368 | -0.72972 | 36120 ft | 457 kts | 326° |
| 2026-05-01 13:24 | 52.15105 | -0.75672 | 35364 ft | 462 kts | 326° |
| 2026-05-01 13:25 | 52.20605 | -0.81128 | 33955 ft | 468 kts | 326° |
| 2026-05-01 13:25 | 52.23393 | -0.83897 | 33195 ft | 470 kts | 326° |
| 2026-05-01 13:25 | 52.26191 | -0.86678 | 32428 ft | 472 kts | 326° |
| 2026-05-01 13:25 | 52.29005 | -0.89469 | 31664 ft | 474 kts | 326° |
| 2026-05-01 13:26 | 52.31829 | -0.92269 | 30882 ft | 476 kts | 326° |
| 2026-05-01 13:26 | 52.34670 | -0.95090 | 30187 ft | 477 kts | 326° |
| 2026-05-01 13:26 | 52.37490 | -0.97894 | 29597 ft | 472 kts | 326° |
| 2026-05-01 13:26 | 52.40271 | -1.00664 | 29104 ft | 463 kts | 326° |
| 2026-05-01 13:27 | 52.42988 | -1.03375 | 28522 ft | 453 kts | 326° |
| 2026-05-01 13:27 | 52.45665 | -1.06052 | 27707 ft | 450 kts | 326° |
| 2026-05-01 13:27 | 52.50957 | -1.11369 | 26482 ft | 433 kts | 325° |
| 2026-05-01 13:28 | 52.55922 | -1.16407 | 25698 ft | 407 kts | 325° |
| 2026-05-01 13:28 | 52.58294 | -1.18814 | 25340 ft | 395 kts | 325° |
| 2026-05-01 13:29 | 52.62862 | -1.23438 | 24643 ft | 375 kts | 324° |
| 2026-05-01 13:29 | 52.67205 | -1.27846 | 23986 ft | 359 kts | 324° |
| 2026-05-01 13:30 | 52.75490 | -1.36282 | 22622 ft | 359 kts | 324° |
| 2026-05-01 13:31 | 52.79743 | -1.40620 | 21930 ft | 358 kts | 324° |
| 2026-05-01 13:31 | 52.86062 | -1.47078 | 20914 ft | 354 kts | 324° |
| 2026-05-01 13:32 | 52.90227 | -1.51350 | 20267 ft | 351 kts | 324° |
| 2026-05-01 13:33 | 52.96447 | -1.57749 | 19238 ft | 351 kts | 325° |
| 2026-05-01 13:33 | 53.00597 | -1.62029 | 18527 ft | 351 kts | 325° |
| 2026-05-01 13:34 | 53.04754 | -1.66323 | 17732 ft | 351 kts | 326° |
| 2026-05-01 13:34 | 53.09238 | -1.69559 | 16989 ft | 352 kts | 339° |
| 2026-05-01 13:35 | 53.13845 | -1.72240 | 16284 ft | 349 kts | 338° |
| 2026-05-01 13:35 | 53.16126 | -1.73636 | 15923 ft | 348 kts | 338° |
| 2026-05-01 13:35 | 53.20647 | -1.76443 | 15233 ft | 346 kts | 338° |
| 2026-05-01 13:36 | 53.22896 | -1.77844 | 14883 ft | 345 kts | 338° |
| 2026-05-01 13:36 | 53.25139 | -1.79242 | 14530 ft | 344 kts | 338° |
| 2026-05-01 13:36 | 53.29581 | -1.82014 | 13836 ft | 342 kts | 338° |
| 2026-05-01 13:37 | 53.31811 | -1.83408 | 13447 ft | 341 kts | 338° |
| 2026-05-01 13:37 | 53.34032 | -1.84798 | 13081 ft | 340 kts | 338° |
| 2026-05-01 13:37 | 53.36243 | -1.86181 | 12719 ft | 338 kts | 338° |
| 2026-05-01 13:37 | 53.38429 | -1.87553 | 12396 ft | 334 kts | 338° |
| 2026-05-01 13:38 | 53.42760 | -1.90274 | 11710 ft | 330 kts | 338° |
| 2026-05-01 13:38 | 53.44904 | -1.91623 | 11374 ft | 328 kts | 338° |
| 2026-05-01 13:38 | 53.47036 | -1.92965 | 11056 ft | 327 kts | 338° |
| 2026-05-01 13:39 | 53.49161 | -1.94304 | 10713 ft | 326 kts | 338° |
| 2026-05-01 13:39 | 53.51280 | -1.95621 | 10385 ft | 325 kts | 341° |
| 2026-05-01 13:39 | 53.53481 | -1.96215 | 10071 ft | 316 kts | 357° |
| 2026-05-01 13:39 | 53.55625 | -1.96274 | 10009 ft | 303 kts | 359° |
| 2026-05-01 13:40 | 53.57740 | -1.96269 | 9756 ft | 300 kts | 360° |
| 2026-05-01 13:40 | 53.59811 | -1.96249 | 9526 ft | 296 kts | 360° |
| 2026-05-01 13:40 | 53.61868 | -1.96218 | 9264 ft | 294 kts | 0° |
| 2026-05-01 13:40 | 53.63909 | -1.96183 | 8986 ft | 293 kts | 360° |
| 2026-05-01 13:41 | 53.65941 | -1.96137 | 8694 ft | 292 kts | 360° |
| 2026-05-01 13:41 | 53.67969 | -1.96087 | 8394 ft | 291 kts | 0° |
| 2026-05-01 13:41 | 53.69989 | -1.96037 | 8105 ft | 288 kts | 0° |
| 2026-05-01 13:41 | 53.71959 | -1.95985 | 7757 ft | 286 kts | 360° |
| 2026-05-01 13:42 | 53.73961 | -1.95922 | 7330 ft | 288 kts | 360° |
| 2026-05-01 13:42 | 53.75935 | -1.95848 | 7001 ft | 287 kts | 360° |
| 2026-05-01 13:42 | 53.77926 | -1.95763 | 6673 ft | 286 kts | 360° |
| 2026-05-01 13:42 | 53.79932 | -1.95670 | 6310 ft | 283 kts | 0° |
| 2026-05-01 13:43 | 53.81865 | -1.95574 | 5949 ft | 280 kts | 0° |
| 2026-05-01 13:43 | 53.83825 | -1.95478 | 5587 ft | 275 kts | 0° |
| 2026-05-01 13:43 | 53.85697 | -1.95391 | 5268 ft | 270 kts | 0° |
| 2026-05-01 13:43 | 53.87547 | -1.95311 | 5017 ft | 262 kts | 0° |
| 2026-05-01 13:44 | 53.89345 | -1.95237 | 4723 ft | 254 kts | 0° |
| 2026-05-01 13:44 | 53.91083 | -1.95164 | 4612 ft | 246 kts | 0° |
| 2026-05-01 13:44 | 53.92762 | -1.95102 | 4517 ft | 236 kts | 0° |
| 2026-05-01 13:44 | 53.94360 | -1.94996 | 4384 ft | 224 kts | 8° |
| 2026-05-01 13:45 | 53.95722 | -1.93943 | 4235 ft | 211 kts | 44° |
| 2026-05-01 13:45 | 53.96731 | -1.92201 | 4113 ft | 204 kts | 49° |
| 2026-05-01 13:45 | 53.97683 | -1.90420 | 3980 ft | 204 kts | 50° |
| 2026-05-01 13:45 | 53.98391 | -1.88398 | 3842 ft | 198 kts | 82° |
| 2026-05-01 13:46 | 53.98320 | -1.86192 | 3762 ft | 181 kts | 108° |
| 2026-05-01 13:46 | 53.97997 | -1.84162 | 3593 ft | 174 kts | 116° |
| 2026-05-01 13:46 | 53.97280 | -1.82627 | 3458 ft | 164 kts | 142° |
| 2026-05-01 13:46 | 53.96456 | -1.81311 | 3357 ft | 161 kts | 139° |
| 2026-05-01 13:47 | 53.95661 | -1.80031 | 3246 ft | 153 kts | 140° |
| 2026-05-01 13:47 | 53.94887 | -1.78827 | 3050 ft | 148 kts | 140° |
| 2026-05-01 13:47 | 53.94141 | -1.77678 | 2854 ft | 147 kts | 140° |
| 2026-05-01 13:47 | 53.93385 | -1.76515 | 2620 ft | 146 kts | 139° |
| 2026-05-01 13:48 | 53.92654 | -1.75392 | 2387 ft | 137 kts | 140° |
| 2026-05-01 13:48 | 53.91956 | -1.74318 | 2196 ft | 136 kts | 140° |
| 2026-05-01 13:48 | 53.91243 | -1.73215 | 1985 ft | 140 kts | 139° |
| 2026-05-01 13:48 | 53.90538 | -1.72123 | 1734 ft | 138 kts | 140° |
| 2026-05-01 13:49 | 53.89830 | -1.71038 | 1518 ft | 136 kts | 141° |
| 2026-05-01 13:49 | 53.89127 | -1.69974 | 1252 ft | 136 kts | 139° |
| 2026-05-01 13:49 | 53.88421 | -1.68890 | 1092 ft | 138 kts | 137° |
| 2026-05-01 13:49 | 53.87708 | -1.67783 | 892 ft | 139 kts | 137° |
| 2026-05-01 13:50 | 53.87001 | -1.66688 | 695 ft | 139 kts | 137° |
| 2026-05-01 13:50 | 53.86363 | -1.65705 | 670 ft | 99 kts | 138° |
| 2026-05-01 13:50 | 53.86021 | -1.65179 | 673 ft | 35 kts | 137° |
| 2026-05-01 13:50 | 53.85919 | -1.64979 | 664 ft | 14 kts | 114° |
| 2026-05-01 13:51 | 53.85888 | -1.64982 | 663 ft | 6 kts | 297° |
| 2026-05-01 13:51 | 53.85953 | -1.65076 | 668 ft | 20 kts | 318° |
| 2026-05-01 13:51 | 53.86089 | -1.65287 | 677 ft | 30 kts | 317° |
| 2026-05-01 13:51 | 53.86221 | -1.65459 | 679 ft | 21 kts | 345° |
| 2026-05-01 13:52 | 53.86358 | -1.65455 | 675 ft | 18 kts | 5° |
| 2026-05-01 13:52 | 53.86481 | -1.65441 | 668 ft | 15 kts | 4° |
| 2026-05-01 13:52 | 53.86590 | -1.65430 | 664 ft | 17 kts | 2° |
| 2026-05-01 13:52 | 53.86712 | -1.65419 | 660 ft | 16 kts | 4° |
| 2026-05-01 13:53 | 53.86804 | -1.65429 | 660 ft | 13 kts | 327° |
| 2026-05-01 13:53 | 53.86815 | -1.65707 | 664 ft | 9 kts | 270° |
| 2026-05-01 13:53 | 53.86823 | -1.65755 | 664 ft | 2 kts | 338° |
| 2026-05-01 13:54 | 53.86843 | -1.65761 | 664 ft | 4 kts | 358° |
| 2026-05-01 13:54 | 53.86869 | -1.65760 | 664 ft | 3 kts | 1° |
| 2026-05-01 13:54 | 53.86879 | -1.65760 | 664 ft | 0 kts | 1° |